Time;durP1;ratioP1;P1;durP2;ratioP2;P2;SDS_P1;SDS_P2;PMS_P1;PMS_P2;Temp;Humidity;BMP_temperature;BMP_pressure;BME280_temperature;BME280_humidity;BME280_pressure;Samples;Min_cycle;Max_cycle;Signal;HPM_P1;HPM_P2
2022/04/16 00:00:17;;;;;;;2.00;1.73;;;14.00;99.90;;;;;;4994673;28;20469;-90
2022/04/16 00:02:46;;;;;;;2.15;1.60;;;14.00;99.90;;;;;;4994608;28;20875;-91
2022/04/16 00:05:13;;;;;;;1.77;1.67;;;14.00;99.90;;;;;;4995868;28;20424;-90
2022/04/16 00:07:39;;;;;;;2.00;1.63;;;14.10;99.90;;;;;;4995526;28;20490;-90
2022/04/16 00:10:05;;;;;;;2.53;2.00;;;13.90;99.90;;;;;;4997341;28;20405;-91
2022/04/16 00:12:31;;;;;;;2.40;2.20;;;13.90;99.90;;;;;;5004078;28;20401;-90
2022/04/16 00:14:57;;;;;;;2.30;2.10;;;13.80;99.90;;;;;;4995935;28;20421;-90
2022/04/16 00:17:23;;;;;;;3.20;1.90;;;13.80;99.90;;;;;;4982257;28;20395;-90
2022/04/16 00:19:49;;;;;;;2.15;1.95;;;13.80;99.90;;;;;;4997261;28;20521;-90
2022/04/16 00:22:14;;;;;;;3.10;2.30;;;13.80;99.90;;;;;;4997485;28;20393;-90
2022/04/16 00:24:40;;;;;;;2.97;2.20;;;13.70;99.90;;;;;;4999297;28;20399;-90
2022/04/16 00:27:10;;;;;;;3.70;2.55;;;13.70;99.90;;;;;;4996702;28;20436;-91
2022/04/16 00:29:36;;;;;;;3.25;2.78;;;13.70;99.90;;;;;;4997437;28;20427;-90
2022/04/16 00:32:05;;;;;;;2.90;2.70;;;13.60;99.90;;;;;;4998468;28;20391;-91
2022/04/16 00:34:34;;;;;;;3.03;2.67;;;13.60;99.90;;;;;;5010347;28;20443;-90
2022/04/16 00:37:00;;;;;;;2.93;2.73;;;13.40;99.90;;;;;;4998341;28;20395;-90
2022/04/16 00:39:26;;;;;;;3.30;2.90;;;13.30;99.90;;;;;;4995549;28;20387;-90
2022/04/16 00:41:52;;;;;;;3.28;2.97;;;13.30;99.90;;;;;;4996179;28;20382;-90
2022/04/16 00:44:20;;;;;;;3.30;3.00;;;13.30;99.90;;;;;;4998049;28;20406;-90
2022/04/16 00:46:47;;;;;;;4.32;3.40;;;13.40;99.90;;;;;;4993946;28;20401;-89
2022/04/16 00:49:12;;;;;;;3.70;3.08;;;13.30;99.90;;;;;;4995160;28;20392;-90
2022/04/16 00:51:39;;;;;;;3.10;2.90;;;13.10;99.90;;;;;;4995888;28;20403;-89
2022/04/16 00:54:05;;;;;;;3.30;3.00;;;13.20;99.90;;;;;;4998003;28;20421;-91
2022/04/16 00:56:31;;;;;;;3.72;3.30;;;13.10;99.90;;;;;;4997580;28;20488;-90
2022/04/16 00:58:58;;;;;;;3.85;3.45;;;13.10;99.90;;;;;;5006618;28;20394;-89
2022/04/16 01:01:24;;;;;;;4.30;3.78;;;13.00;99.90;;;;;;5003385;28;20473;-89
2022/04/16 01:03:50;;;;;;;4.05;3.65;;;12.60;99.90;;;;;;5002384;28;20418;-89
2022/04/16 01:06:16;;;;;;;3.70;3.40;;;12.70;99.90;;;;;;4998042;28;20382;-89
2022/04/16 01:08:44;;;;;;;4.03;3.70;;;12.60;99.90;;;;;;4997878;28;20481;-90
2022/04/16 01:11:11;;;;;;;4.05;3.40;;;12.60;99.90;;;;;;4994875;28;20946;-90
2022/04/16 01:13:37;;;;;;;3.80;3.40;;;12.70;99.90;;;;;;4996090;28;20392;-91
2022/04/16 01:16:05;;;;;;;3.83;3.53;;;12.90;99.90;;;;;;4996907;28;20823;-90
2022/04/16 01:18:31;;;;;;;3.85;3.50;;;12.60;99.90;;;;;;4997574;28;20850;-90
2022/04/16 01:20:57;;;;;;;4.20;3.83;;;12.60;99.90;;;;;;5008039;28;20766;-91
2022/04/16 01:23:23;;;;;;;3.77;3.47;;;12.60;99.90;;;;;;4996469;28;20406;-91
2022/04/16 01:25:48;;;;;;;3.60;3.30;;;12.60;99.90;;;;;;4993616;28;20391;-90
2022/04/16 01:28:14;;;;;;;3.55;3.25;;;12.70;99.90;;;;;;4996654;28;20398;-91
2022/04/16 01:30:40;;;;;;;3.63;3.25;;;12.70;99.90;;;;;;4995897;28;20398;-90
2022/04/16 01:33:05;;;;;;;3.75;3.45;;;12.70;99.90;;;;;;4998554;28;20481;-89
2022/04/16 01:35:32;;;;;;;3.95;3.55;;;12.70;99.90;;;;;;4997773;28;20903;-89
2022/04/16 01:37:58;;;;;;;3.67;3.38;;;12.50;99.90;;;;;;4993991;28;20982;-91
2022/04/16 01:40:25;;;;;;;4.00;3.60;;;12.30;99.90;;;;;;4996040;28;20426;-89
2022/04/16 01:42:56;;;;;;;3.45;3.15;;;12.50;99.90;;;;;;4993707;28;20394;-90
2022/04/16 01:45:23;;;;;;;4.25;3.47;;;12.50;99.90;;;;;;4995673;28;20393;-90
2022/04/16 01:47:50;;;;;;;3.75;3.45;;;12.40;99.90;;;;;;4999058;28;20803;-89
2022/04/16 01:50:16;;;;;;;4.00;3.67;;;11.90;99.90;;;;;;5010222;28;20473;-89
2022/04/16 01:52:42;;;;;;;3.50;3.20;;;12.00;99.90;;;;;;4996497;28;20425;-90
2022/04/16 01:55:09;;;;;;;3.63;3.33;;;12.20;99.90;;;;;;4996949;28;20962;-89
2022/04/16 01:57:35;;;;;;;3.70;3.38;;;12.20;99.90;;;;;;4996618;28;20474;-91
2022/04/16 02:00:03;;;;;;;3.58;3.28;;;12.30;99.90;;;;;;4996020;28;20394;-90
2022/04/16 02:02:29;;;;;;;4.05;3.75;;;12.30;99.90;;;;;;4977712;28;20517;-90
2022/04/16 02:04:54;;;;;;;4.13;3.70;;;12.10;99.90;;;;;;4997714;28;20844;-91
2022/04/16 02:07:20;;;;;;;3.80;3.40;;;12.00;99.90;;;;;;4989389;28;20494;-90
2022/04/16 02:09:46;;;;;;;4.00;3.63;;;11.90;99.90;;;;;;4993133;28;20941;-90
2022/04/16 02:12:13;;;;;;;4.22;3.92;;;11.70;99.90;;;;;;4992729;28;20396;-91
2022/04/16 02:14:38;;;;;;;4.38;3.97;;;11.90;99.90;;;;;;4994059;28;20451;-90
2022/04/16 02:17:04;;;;;;;4.75;4.35;;;11.70;99.90;;;;;;4994039;28;20894;-89
2022/04/16 02:19:32;;;;;;;4.47;4.07;;;11.60;99.90;;;;;;4996431;28;20418;-91
2022/04/16 02:21:58;;;;;;;4.55;4.15;;;11.30;99.90;;;;;;4993625;28;20433;-89
2022/04/16 02:24:24;;;;;;;4.68;4.15;;;11.40;99.90;;;;;;4997307;28;20421;-90
2022/04/16 02:26:50;;;;;;;4.80;4.40;;;11.60;99.90;;;;;;4997676;28;20391;-90
2022/04/16 02:29:16;;;;;;;4.45;4.05;;;11.50;99.90;;;;;;4995345;28;20417;-90
2022/04/16 02:31:42;;;;;;;4.50;4.10;;;11.50;99.90;;;;;;4993428;28;20489;-90
2022/04/16 02:34:11;;;;;;;5.13;4.65;;;11.40;99.90;;;;;;4997992;28;20391;-90
2022/04/16 02:36:37;;;;;;;4.78;4.40;;;11.00;99.90;;;;;;4998616;28;20876;-90
2022/04/16 02:39:03;;;;;;;4.70;4.30;;;11.60;99.90;;;;;;4995287;28;20408;-90
2022/04/16 02:41:29;;;;;;;4.82;4.43;;;11.20;99.90;;;;;;5008878;28;20392;-89
2022/04/16 02:43:54;;;;;;;5.20;4.70;;;11.00;99.90;;;;;;5000960;28;20405;-89
2022/04/16 02:49:09;;;;;;;5.53;4.20;;;10.90;99.90;;;;;;5000686;28;20378;-90
2022/04/16 02:51:34;;;;;;;4.80;4.40;;;11.20;99.90;;;;;;5002957;28;20383;-90
2022/04/16 02:54:00;;;;;;;4.80;4.40;;;11.00;99.90;;;;;;4999589;28;20934;-89
2022/04/16 02:56:26;;;;;;;4.70;4.30;;;10.90;99.90;;;;;;4998513;28;20398;-90
2022/04/16 02:58:52;;;;;;;4.70;4.30;;;11.40;99.90;;;;;;5006395;28;20425;-90
2022/04/16 03:01:17;;;;;;;4.80;4.30;;;11.20;99.90;;;;;;5002093;28;20402;-90
2022/04/16 03:03:43;;;;;;;4.90;4.50;;;11.10;99.90;;;;;;5002008;28;20397;-89
2022/04/16 03:06:09;;;;;;;4.40;4.10;;;11.20;99.90;;;;;;5016131;28;20819;-91
2022/04/16 03:08:35;;;;;;;4.90;4.60;;;11.30;99.90;;;;;;4999833;28;20481;-91
2022/04/16 03:11:01;;;;;;;4.82;4.43;;;11.40;99.90;;;;;;5001915;28;20402;-91
2022/04/16 03:13:26;;;;;;;4.85;4.45;;;11.30;99.90;;;;;;5003215;28;20820;-89
2022/04/16 03:18:36;;;;;;;4.70;4.13;;;11.30;99.90;;;;;;5000004;28;20371;-91
2022/04/16 03:21:03;;;;;;;5.00;4.60;;;11.30;99.90;;;;;;4999156;28;20751;-90
2022/04/16 03:23:29;;;;;;;4.43;4.03;;;11.30;99.90;;;;;;5000868;28;20425;-89
2022/04/16 03:25:58;;;;;;;4.47;4.10;;;11.20;99.90;;;;;;5000554;28;20398;-91
2022/04/16 03:28:24;;;;;;;4.60;4.20;;;11.30;99.90;;;;;;4997442;28;20447;-90
2022/04/16 03:30:50;;;;;;;4.30;4.00;;;11.30;99.90;;;;;;4998647;28;20795;-89
2022/04/16 03:33:16;;;;;;;4.53;4.13;;;11.30;99.90;;;;;;4993280;28;20460;-90
2022/04/16 03:35:41;;;;;;;4.60;4.13;;;11.20;99.90;;;;;;4997075;28;20411;-89
2022/04/16 03:38:07;;;;;;;4.72;4.38;;;11.10;99.90;;;;;;5002686;28;20791;-90
2022/04/16 03:40:32;;;;;;;4.10;3.80;;;11.10;99.90;;;;;;4998006;28;20934;-90
2022/04/16 03:43:00;;;;;;;5.28;4.40;;;12.00;99.90;;;;;;4996883;28;20408;-89
2022/04/16 03:45:31;;;;;;;4.60;4.30;;;11.30;99.90;;;;;;4999827;28;20482;-89
2022/04/16 03:47:58;;;;;;;4.55;4.15;;;11.30;99.90;;;;;;5005667;28;20394;-88
2022/04/16 03:50:26;;;;;;;4.40;4.00;;;11.30;99.90;;;;;;5003700;28;20387;-88
2022/04/16 03:52:52;;;;;;;4.50;4.20;;;11.30;99.90;;;;;;5000105;28;20417;-91
2022/04/16 04:00:53;;;;;;;4.65;4.25;;;11.20;99.90;;;;;;5001508;28;20454;-89
2022/04/16 04:03:20;;;;;;;4.55;4.25;;;11.10;99.90;;;;;;5000796;28;20389;-90
2022/04/16 04:05:48;;;;;;;4.30;4.00;;;11.10;99.90;;;;;;4981525;28;20390;-90
2022/04/16 04:08:14;;;;;;;4.45;4.15;;;11.00;99.90;;;;;;4997337;28;20386;-88
2022/04/16 04:10:40;;;;;;;4.72;4.32;;;11.50;99.90;;;;;;4997365;28;20394;-90
2022/04/16 04:13:05;;;;;;;4.40;4.10;;;11.00;99.90;;;;;;4995432;28;20391;-90
2022/04/16 04:15:31;;;;;;;4.90;4.50;;;10.80;99.90;;;;;;4995327;28;20410;-89
2022/04/16 04:18:01;;;;;;;4.70;4.30;;;10.80;99.90;;;;;;4999132;28;20386;-90
2022/04/16 04:20:28;;;;;;;4.85;4.55;;;10.80;99.90;;;;;;4996887;28;20411;-90
2022/04/16 04:22:54;;;;;;;4.47;4.18;;;10.80;99.90;;;;;;4997688;28;20378;-90
2022/04/16 04:25:20;;;;;;;4.80;4.43;;;10.90;99.90;;;;;;4992625;28;20433;-90
2022/04/16 04:27:46;;;;;;;5.40;4.50;;;10.30;99.90;;;;;;4998006;28;20398;-90
2022/04/16 04:30:12;;;;;;;5.00;4.60;;;10.30;99.90;;;;;;4998168;28;20863;-90
2022/04/16 04:32:38;;;;;;;5.40;4.90;;;10.30;99.90;;;;;;4999401;28;20395;-89
2022/04/16 04:35:06;;;;;;;5.53;5.03;;;10.20;99.90;;;;;;4988431;28;20407;-89
2022/04/16 04:37:31;;;;;;;4.68;4.32;;;10.30;99.90;;;;;;4997413;28;20464;-89
2022/04/16 04:39:57;;;;;;;4.80;4.50;;;10.30;99.90;;;;;;5008328;28;20391;-90
2022/04/16 04:42:23;;;;;;;4.83;4.43;;;10.40;99.90;;;;;;4993573;28;20910;-89
2022/04/16 04:44:52;;;;;;;5.20;4.70;;;10.40;99.90;;;;;;4992976;28;20410;-89
2022/04/16 04:47:18;;;;;;;5.35;4.82;;;10.40;99.90;;;;;;4985161;28;20749;-90
2022/04/16 04:49:44;;;;;;;4.70;4.30;;;10.50;99.90;;;;;;4996444;28;20388;-90
2022/04/16 04:52:10;;;;;;;5.13;4.43;;;10.50;99.90;;;;;;4995239;28;20952;-90
2022/04/16 04:54:35;;;;;;;4.45;4.13;;;11.10;99.90;;;;;;4995213;28;20447;-89
2022/04/16 04:57:04;;;;;;;4.60;4.20;;;10.50;99.90;;;;;;4996159;28;20799;-89
2022/04/16 04:59:30;;;;;;;5.00;4.60;;;10.60;99.90;;;;;;4999067;28;20401;-90
2022/04/16 05:01:56;;;;;;;4.60;4.20;;;11.30;99.90;;;;;;4997611;28;20443;-89
2022/04/16 05:04:21;;;;;;;4.47;4.18;;;10.60;99.90;;;;;;5006389;28;20383;-89
2022/04/16 05:06:47;;;;;;;5.07;4.57;;;10.60;99.90;;;;;;5002712;28;20393;-89
2022/04/16 05:09:13;;;;;;;4.18;3.88;;;10.60;99.90;;;;;;5000321;28;20811;-87
2022/04/16 05:11:38;;;;;;;4.10;3.80;;;10.50;99.90;;;;;;5012722;28;20414;-88
2022/04/16 05:14:04;;;;;;;4.28;3.88;;;10.40;99.90;;;;;;4995784;28;20826;-88
2022/04/16 05:16:29;;;;;;;4.32;4.00;;;10.40;99.90;;;;;;4996308;28;20387;-90
2022/04/16 05:18:55;;;;;;;4.60;4.20;;;10.40;99.90;;;;;;4996617;28;20486;-88
2022/04/16 05:21:21;;;;;;;4.63;3.90;;;10.40;99.90;;;;;;5001828;28;20386;-88
2022/04/16 05:23:46;;;;;;;4.47;4.17;;;10.30;99.90;;;;;;4996899;28;20387;-89
2022/04/16 05:26:12;;;;;;;4.23;3.93;;;10.40;99.90;;;;;;4999199;28;20448;-90
2022/04/16 05:28:39;;;;;;;4.45;4.05;;;10.30;99.90;;;;;;4998658;28;20395;-88
2022/04/16 05:31:05;;;;;;;5.03;4.53;;;10.10;99.90;;;;;;4999147;28;20395;-88
2022/04/16 05:36:16;;;;;;;4.55;4.20;;;9.90;99.90;;;;;;4998659;28;20414;-89
2022/04/16 05:38:42;;;;;;;5.00;4.60;;;9.90;99.90;;;;;;4998363;28;20394;-90
2022/04/16 05:41:08;;;;;;;4.97;4.57;;;10.50;99.90;;;;;;5001120;28;20388;-90
2022/04/16 05:43:34;;;;;;;5.32;4.85;;;9.90;99.90;;;;;;4997231;28;20414;-91
2022/04/16 05:46:00;;;;;;;5.70;5.30;;;9.90;99.90;;;;;;5007142;28;20402;-87
2022/04/16 05:48:26;;;;;;;5.65;5.15;;;9.80;99.90;;;;;;4995264;28;20748;-89
2022/04/16 05:50:51;;;;;;;5.80;5.38;;;9.60;99.90;;;;;;4998249;28;20394;-87
2022/04/16 05:53:18;;;;;;;6.20;5.63;;;9.50;99.90;;;;;;4996959;28;20420;-89
2022/04/16 05:55:48;;;;;;;5.65;5.20;;;9.90;99.90;;;;;;4994439;28;20414;-90
2022/04/16 05:58:14;;;;;;;6.40;5.90;;;9.80;99.90;;;;;;4996135;28;20386;-88
2022/04/16 06:00:40;;;;;;;6.07;5.60;;;9.50;99.90;;;;;;4997288;28;20477;-90
2022/04/16 06:03:07;;;;;;;6.35;5.85;;;9.30;99.90;;;;;;4995814;28;20410;-89
2022/04/16 06:05:32;;;;;;;6.15;5.60;;;9.50;99.90;;;;;;4996295;28;20448;-87
2022/04/16 06:08:02;;;;;;;6.37;5.87;;;9.50;99.90;;;;;;4997588;28;20394;-88
2022/04/16 06:10:28;;;;;;;6.35;5.85;;;9.50;99.90;;;;;;4996331;28;20421;-89
2022/04/16 06:12:54;;;;;;;6.37;5.87;;;9.50;99.90;;;;;;4995242;28;20395;-91
2022/04/16 06:15:20;;;;;;;6.32;5.82;;;9.50;99.90;;;;;;4996174;28;20485;-90
2022/04/16 06:17:45;;;;;;;6.40;5.90;;;9.60;99.90;;;;;;4994549;28;20529;-90
2022/04/16 06:20:11;;;;;;;6.10;5.60;;;9.80;99.90;;;;;;4992236;28;20748;-89
2022/04/16 06:22:39;;;;;;;6.60;6.10;;;9.90;99.90;;;;;;4993061;28;20382;-90
2022/04/16 06:25:05;;;;;;;6.05;5.55;;;9.80;99.90;;;;;;4993529;28;20394;-89
2022/04/16 06:27:31;;;;;;;6.03;5.53;;;9.80;99.90;;;;;;4995866;28;20426;-90
2022/04/16 06:29:57;;;;;;;6.13;5.53;;;9.80;99.90;;;;;;4992425;28;20434;-89
2022/04/16 06:32:22;;;;;;;6.93;6.43;;;9.80;99.90;;;;;;4993307;28;20415;-89
2022/04/16 06:34:48;;;;;;;6.07;5.57;;;9.90;99.90;;;;;;4992704;28;20436;-88
2022/04/16 06:37:14;;;;;;;6.18;5.68;;;9.80;99.90;;;;;;4993013;28;20935;-88
2022/04/16 06:39:41;;;;;;;6.18;5.68;;;9.80;99.90;;;;;;4995390;28;20394;-90
2022/04/16 06:42:07;;;;;;;5.55;5.05;;;9.80;99.90;;;;;;4999225;28;20407;-89
2022/04/16 06:44:32;;;;;;;5.87;5.37;;;10.00;99.90;;;;;;4995753;28;20497;-91
2022/04/16 06:46:58;;;;;;;6.25;5.68;;;10.10;99.90;;;;;;4993976;28;20485;-90
2022/04/16 06:49:25;;;;;;;6.32;5.72;;;10.20;99.90;;;;;;4994436;28;20432;-91
2022/04/16 06:51:51;;;;;;;5.53;5.13;;;10.30;99.90;;;;;;4993526;28;20387;-90
2022/04/16 06:54:17;;;;;;;5.55;5.05;;;9.90;99.90;;;;;;4991885;28;20395;-89
2022/04/16 06:56:43;;;;;;;6.05;5.55;;;9.90;99.90;;;;;;4990677;28;20421;-89
2022/04/16 06:59:08;;;;;;;5.30;4.90;;;9.90;99.90;;;;;;4995659;28;20395;-89
2022/04/16 07:01:34;;;;;;;5.55;5.03;;;10.20;99.90;;;;;;4987956;28;20879;-90
2022/04/16 07:04:00;;;;;;;5.50;5.10;;;9.70;99.90;;;;;;4992155;28;20434;-90
2022/04/16 07:06:25;;;;;;;6.32;5.35;;;9.80;99.90;;;;;;4991042;28;20881;-88
2022/04/16 07:08:52;;;;;;;6.07;5.57;;;9.80;99.90;;;;;;4992696;28;20406;-87
2022/04/16 07:11:18;;;;;;;5.60;5.10;;;9.90;99.90;;;;;;4989608;28;20898;-88
2022/04/16 07:13:43;;;;;;;5.65;5.15;;;9.90;99.90;;;;;;4997225;28;20402;-88
2022/04/16 07:16:09;;;;;;;5.35;4.95;;;9.80;99.90;;;;;;4989714;28;20429;-90
2022/04/16 07:18:35;;;;;;;5.72;5.22;;;10.00;99.90;;;;;;4994134;28;20402;-89
2022/04/16 07:21:00;;;;;;;5.47;5.07;;;10.30;99.90;;;;;;4994455;28;20445;-90
2022/04/16 07:23:26;;;;;;;5.27;4.87;;;10.10;99.90;;;;;;4991575;28;20392;-82
2022/04/16 07:25:51;;;;;;;6.57;4.70;;;10.10;99.90;;;;;;4995480;28;20876;-83
2022/04/16 07:28:21;;;;;;;5.32;4.70;;;10.40;99.90;;;;;;5007383;28;20402;-83
2022/04/16 07:30:50;;;;;;;5.25;4.78;;;10.70;99.90;;;;;;4999695;28;20395;-83
2022/04/16 07:33:17;;;;;;;4.68;4.38;;;10.50;99.90;;;;;;4996906;28;20953;-84
2022/04/16 07:35:42;;;;;;;5.05;4.65;;;10.40;99.90;;;;;;4997907;28;20416;-85
2022/04/16 07:38:08;;;;;;;4.85;4.55;;;10.50;99.90;;;;;;4996340;28;20386;-83
2022/04/16 07:40:34;;;;;;;4.68;4.28;;;10.90;99.90;;;;;;4996663;28;20747;-84
2022/04/16 07:43:01;;;;;;;4.50;4.10;;;10.90;99.90;;;;;;4995378;28;20407;-82
2022/04/16 07:45:31;;;;;;;5.00;4.50;;;10.70;99.90;;;;;;4995113;28;20391;-83
2022/04/16 07:47:57;;;;;;;4.70;4.30;;;10.70;99.90;;;;;;4997396;28;20913;-83
2022/04/16 07:50:22;;;;;;;4.60;4.20;;;10.70;99.90;;;;;;4995652;28;20462;-80
2022/04/16 07:52:48;;;;;;;4.32;4.03;;;10.90;99.90;;;;;;4997041;28;20463;-81
2022/04/16 07:55:15;;;;;;;4.80;4.40;;;11.00;99.90;;;;;;4997109;28;20458;-81
2022/04/16 07:57:41;;;;;;;5.50;4.70;;;11.00;99.90;;;;;;4994536;28;20390;-81
2022/04/16 08:00:08;;;;;;;4.10;3.80;;;11.10;99.90;;;;;;4996838;28;20456;-83
2022/04/16 08:02:34;;;;;;;4.50;4.20;;;11.30;99.90;;;;;;4997010;28;20381;-83
2022/04/16 08:04:59;;;;;;;4.78;4.47;;;11.20;99.90;;;;;;4994177;28;20399;-83
2022/04/16 08:07:25;;;;;;;4.93;4.50;;;11.10;99.90;;;;;;4995143;28;20422;-83
2022/04/16 08:09:51;;;;;;;4.43;4.05;;;11.20;99.90;;;;;;4993641;28;20391;-83
2022/04/16 08:12:17;;;;;;;4.43;4.05;;;11.20;99.90;;;;;;4996140;28;20398;-83
2022/04/16 08:14:43;;;;;;;4.70;4.40;;;11.30;99.90;;;;;;4997133;28;20410;-83
2022/04/16 08:17:08;;;;;;;4.10;3.80;;;11.20;99.90;;;;;;4995367;28;20541;-83
2022/04/16 08:19:34;;;;;;;3.90;3.60;;;11.20;99.90;;;;;;4990010;28;20894;-83
2022/04/16 08:22:00;;;;;;;4.10;3.80;;;11.20;99.90;;;;;;4994050;28;20382;-84
2022/04/16 08:26:57;;;;;;;3.85;3.55;;;11.20;99.90;;;;;;4992674;28;20952;-83
2022/04/16 08:29:23;;;;;;;3.80;3.50;;;11.20;99.90;;;;;;4992251;28;20395;-81
2022/04/16 08:31:49;;;;;;;3.87;3.57;;;11.30;99.90;;;;;;4993874;28;20864;-83
2022/04/16 08:34:15;;;;;;;3.80;3.50;;;11.40;99.90;;;;;;4993048;28;20399;-83
2022/04/16 08:36:41;;;;;;;3.47;3.25;;;11.50;99.90;;;;;;4991041;28;20860;-78
2022/04/16 08:39:06;;;;;;;3.50;3.20;;;11.60;99.90;;;;;;4993324;28;20383;-80
2022/04/16 08:41:32;;;;;;;3.53;3.22;;;11.80;99.90;;;;;;4997174;28;20743;-81
2022/04/16 08:43:58;;;;;;;3.50;3.20;;;11.40;99.90;;;;;;4991447;28;20415;-78
2022/04/16 08:46:28;;;;;;;3.92;3.63;;;11.70;99.90;;;;;;4993837;28;20474;-80
2022/04/16 08:48:56;;;;;;;3.77;3.47;;;11.70;99.90;;;;;;4992086;28;20400;-80
2022/04/16 08:51:22;;;;;;;4.30;3.70;;;11.70;99.90;;;;;;4993084;28;20920;-81
2022/04/16 08:53:47;;;;;;;3.83;3.53;;;11.60;99.90;;;;;;4997347;28;20488;-81
2022/04/16 08:56:13;;;;;;;3.80;3.45;;;11.60;99.90;;;;;;4996900;28;20438;-80
2022/04/16 08:58:39;;;;;;;3.70;3.40;;;11.60;99.90;;;;;;5000673;28;20946;-81
2022/04/16 09:01:05;;;;;;;3.55;3.25;;;11.70;99.90;;;;;;5003987;28;20404;-80
2022/04/16 09:03:39;;;;;;;3.63;3.20;;;11.80;99.90;;;;;;4995093;28;20816;-80
2022/04/16 09:06:05;;;;;;;3.25;3.00;;;11.90;99.90;;;;;;4993214;28;20394;-81
2022/04/16 09:08:33;;;;;;;4.10;3.10;;;11.90;99.90;;;;;;4994796;28;20433;-80
2022/04/16 09:11:11;;;;;;;3.65;3.45;;;12.10;99.90;;;;;;4989965;28;20401;-81
2022/04/16 09:14:00;;;;;;;3.45;3.15;;;12.10;99.90;;;;;;4993793;28;20382;-80
2022/04/16 09:16:26;;;;;;;3.47;3.17;;;12.00;99.90;;;;;;4991957;28;20417;-80
2022/04/16 09:18:53;;;;;;;3.53;3.23;;;12.00;99.90;;;;;;4994805;28;20519;-81
2022/04/16 09:21:23;;;;;;;4.25;3.42;;;12.10;99.90;;;;;;4993986;28;20748;-80
2022/04/16 09:23:57;;;;;;;4.22;3.70;;;12.00;99.90;;;;;;4990849;28;20433;-80
2022/04/16 09:26:32;;;;;;;4.25;3.88;;;12.00;99.90;;;;;;4990184;28;20409;-81
2022/04/16 09:29:09;;;;;;;3.95;3.63;;;12.10;99.90;;;;;;4995110;28;20395;-81
2022/04/16 09:31:38;;;;;;;3.90;3.60;;;12.00;99.90;;;;;;4993704;28;20949;-80
2022/04/16 09:34:05;;;;;;;3.70;3.40;;;12.10;99.90;;;;;;4996415;28;20402;-80
2022/04/16 09:36:31;;;;;;;4.15;3.85;;;12.10;99.90;;;;;;4994441;28;20406;-80
2022/04/16 09:39:16;;;;;;;4.05;3.75;;;12.20;99.90;;;;;;4994357;28;20740;-80
2022/04/16 09:41:44;;;;;;;4.25;3.63;;;12.30;99.90;;;;;;4992770;28;20386;-80
2022/04/16 09:44:22;;;;;;;4.30;3.90;;;12.20;99.90;;;;;;5006829;28;20434;-79
2022/04/16 09:46:49;;;;;;;3.28;3.08;;;12.20;99.90;;;;;;4992547;28;20388;-80
2022/04/16 09:49:17;;;;;;;3.77;3.47;;;12.20;99.90;;;;;;5005077;28;20486;-80
2022/04/16 09:51:47;;;;;;;3.33;3.13;;;12.30;99.90;;;;;;4992895;28;20418;-81
2022/04/16 09:54:13;;;;;;;4.30;4.00;;;12.20;99.90;;;;;;4996267;28;20383;-79
2022/04/16 09:56:41;;;;;;;3.50;3.20;;;12.20;99.90;;;;;;4995657;28;20485;-80
2022/04/16 09:59:12;;;;;;;3.92;3.63;;;12.30;99.90;;;;;;4993588;28;20968;-79
2022/04/16 10:01:39;;;;;;;3.88;3.58;;;12.50;99.90;;;;;;4993739;28;20436;-80
2022/04/16 10:04:07;;;;;;;3.72;3.45;;;12.70;99.90;;;;;;4996026;28;20394;-80
2022/04/16 10:06:33;;;;;;;3.50;3.30;;;12.80;99.90;;;;;;4995506;28;20413;-80
2022/04/16 10:09:13;;;;;;;3.88;3.58;;;12.70;99.90;;;;;;4993405;28;20807;-80
2022/04/16 10:14:31;;;;;;;3.05;2.85;;;12.70;99.90;;;;;;4993379;28;20470;-80
2022/04/16 10:17:15;;;;;;;3.65;2.88;;;12.80;99.90;;;;;;4993409;28;20409;-81
2022/04/16 10:19:45;;;;;;;3.08;2.85;;;13.00;99.90;;;;;;4992300;28;20390;-80
2022/04/16 10:22:25;;;;;;;3.80;3.50;;;13.10;99.90;;;;;;4994491;28;20429;-80
2022/04/16 10:24:58;;;;;;;4.00;3.30;;;13.00;99.90;;;;;;4994088;28;20390;-79
2022/04/16 10:27:26;;;;;;;3.80;3.40;;;13.00;99.90;;;;;;4992386;28;20414;-79
2022/04/16 10:30:03;;;;;;;3.70;3.50;;;13.30;99.90;;;;;;4993220;28;20481;-79
2022/04/16 10:32:39;;;;;;;3.05;2.85;;;13.10;99.90;;;;;;4991967;28;20473;-80
2022/04/16 10:35:07;;;;;;;4.47;4.18;;;13.10;99.90;;;;;;4974457;28;20418;-79
2022/04/16 10:37:41;;;;;;;4.45;3.97;;;13.20;99.90;;;;;;4990292;28;20456;-78
2022/04/16 10:40:25;;;;;;;4.00;3.70;;;13.10;99.90;;;;;;4990724;28;20398;-77
2022/04/16 10:43:01;;;;;;;3.63;3.40;;;13.20;99.90;;;;;;4993588;28;20925;-78
2022/04/16 10:45:27;;;;;;;3.55;3.17;;;13.30;99.90;;;;;;4993644;28;20409;-80
2022/04/16 10:47:54;;;;;;;3.85;3.55;;;13.30;99.90;;;;;;4993896;28;20394;-80
2022/04/16 10:50:22;;;;;;;3.70;3.40;;;13.20;99.90;;;;;;4981157;28;20386;-80
2022/04/16 10:53:00;;;;;;;3.80;3.50;;;13.30;99.90;;;;;;4993200;28;20404;-80
2022/04/16 10:55:31;;;;;;;3.45;3.20;;;13.40;99.90;;;;;;4991544;28;20510;-81
2022/04/16 10:58:04;;;;;;;3.58;3.28;;;13.40;99.90;;;;;;4991902;28;20390;-81
2022/04/16 11:00:44;;;;;;;3.22;3.03;;;13.50;99.90;;;;;;4997052;28;20422;-81
2022/04/16 11:03:27;;;;;;;3.20;3.00;;;13.60;99.90;;;;;;4997301;28;20409;-83
2022/04/16 11:06:09;;;;;;;3.00;2.80;;;13.80;99.90;;;;;;4994566;28;20382;-80
2022/04/16 11:08:36;;;;;;;3.03;2.45;;;13.90;99.90;;;;;;4996405;28;20448;-80
2022/04/16 11:11:02;;;;;;;3.15;2.78;;;14.10;99.90;;;;;;4995167;28;20390;-80
2022/04/16 11:13:32;;;;;;;3.00;2.80;;;14.20;99.90;;;;;;4999627;28;20388;-80
2022/04/16 11:16:01;;;;;;;2.88;2.67;;;14.20;99.90;;;;;;5003929;28;20476;-81
2022/04/16 11:18:43;;;;;;;3.03;2.72;;;14.20;99.90;;;;;;4994697;28;20383;-80
2022/04/16 11:21:22;;;;;;;3.55;2.63;;;14.20;99.90;;;;;;4993763;28;20879;-80
2022/04/16 11:23:50;;;;;;;2.70;2.50;;;14.20;99.90;;;;;;4995417;28;20461;-80
2022/04/16 11:34:51;;;;;;;4.47;3.03;;;14.60;99.90;;;;;;4995833;28;20807;-80
2022/04/16 11:37:17;;;;;;;3.53;3.22;;;14.90;99.90;;;;;;4995939;28;20390;-80
2022/04/16 11:39:42;;;;;;;3.20;3.00;;;14.90;99.90;;;;;;4994848;28;20395;-79
2022/04/16 11:42:09;;;;;;;3.88;3.58;;;15.00;99.90;;;;;;4996476;28;20393;-80
2022/04/16 11:44:40;;;;;;;3.63;3.30;;;14.80;99.90;;;;;;4997628;28;20905;-80
2022/04/16 11:47:13;;;;;;;3.40;3.10;;;14.70;99.90;;;;;;4997080;28;20477;-79
2022/04/16 11:49:43;;;;;;;3.58;3.25;;;14.50;99.90;;;;;;4996534;28;20390;-79
2022/04/16 11:52:09;;;;;;;2.88;2.67;;;14.60;99.90;;;;;;4996436;28;20412;-81
2022/04/16 11:54:35;;;;;;;3.22;2.90;;;14.80;99.90;;;;;;4995881;28;20422;-80
2022/04/16 11:57:00;;;;;;;3.20;3.00;;;14.80;99.90;;;;;;4995258;28;20930;-79
2022/04/16 11:59:28;;;;;;;3.38;3.15;;;14.80;99.90;;;;;;4995286;28;20417;-79
2022/04/16 12:02:18;;;;;;;3.53;3.30;;;14.70;99.90;;;;;;4992081;28;20429;-80
2022/04/16 12:04:44;;;;;;;3.70;3.40;;;14.50;99.90;;;;;;4994636;28;20439;-81
2022/04/16 12:07:16;;;;;;;4.28;3.97;;;14.50;99.90;;;;;;4993979;28;20477;-81
2022/04/16 12:09:49;;;;;;;4.63;4.30;;;14.60;99.90;;;;;;4993110;28;20391;-82
2022/04/16 12:12:19;;;;;;;4.80;4.40;;;14.60;99.90;;;;;;4991798;28;20448;-81
2022/04/16 12:14:50;;;;;;;4.75;4.45;;;14.80;99.90;;;;;;4993681;28;20418;-81
2022/04/16 12:17:27;;;;;;;4.60;4.30;;;14.60;99.90;;;;;;4997116;28;20398;-80
2022/04/16 12:20:06;;;;;;;4.80;4.50;;;14.60;99.90;;;;;;4995563;28;20383;-82
2022/04/16 12:22:33;;;;;;;4.68;4.30;;;14.70;99.90;;;;;;4985266;28;20489;-82
2022/04/16 12:25:09;;;;;;;4.70;4.40;;;14.80;99.90;;;;;;4994308;28;20399;-81
2022/04/16 12:27:35;;;;;;;4.80;4.50;;;14.90;99.90;;;;;;4989467;28;20409;-82
2022/04/16 12:30:02;;;;;;;4.70;4.40;;;15.10;99.90;;;;;;4989430;28;20406;-82
2022/04/16 12:32:28;;;;;;;4.68;4.28;;;14.90;99.90;;;;;;4983025;28;20464;-83
2022/04/16 12:34:54;;;;;;;4.73;4.43;;;15.00;99.90;;;;;;4980497;28;20456;-84
2022/04/16 12:37:20;;;;;;;5.57;4.30;;;14.80;99.90;;;;;;4990297;28;20790;-83
2022/04/16 12:39:46;;;;;;;4.45;4.15;;;14.90;99.90;;;;;;5003976;28;20402;-88
2022/04/16 12:42:12;;;;;;;3.85;3.55;;;14.90;99.90;;;;;;4995938;28;20411;-81
2022/04/16 12:44:38;;;;;;;3.50;3.30;;;15.00;99.90;;;;;;4994606;28;20888;-81
2022/04/16 12:47:03;;;;;;;4.05;3.65;;;15.00;99.90;;;;;;4993587;28;20952;-84
2022/04/16 12:49:29;;;;;;;3.75;3.55;;;14.80;99.90;;;;;;4995846;28;20397;-81
2022/04/16 12:51:54;;;;;;;3.72;3.42;;;14.90;99.90;;;;;;4993328;28;20394;-80
2022/04/16 12:54:20;;;;;;;3.57;3.27;;;14.60;99.90;;;;;;4995673;28;20391;-80
2022/04/16 12:56:47;;;;;;;3.70;3.40;;;14.60;99.90;;;;;;4997187;28;20876;-80
2022/04/16 12:59:15;;;;;;;4.43;4.03;;;14.60;99.90;;;;;;4993275;28;20485;-81
2022/04/16 13:01:41;;;;;;;4.40;4.00;;;14.70;99.90;;;;;;4998795;28;20415;-81
2022/04/16 13:04:07;;;;;;;4.00;3.70;;;14.70;99.90;;;;;;4987480;28;20414;-82
2022/04/16 13:06:32;;;;;;;4.03;3.63;;;14.80;99.90;;;;;;4997472;28;20456;-82
2022/04/16 13:09:02;;;;;;;3.80;3.50;;;14.90;99.90;;;;;;4994347;28;20414;-82
2022/04/16 13:11:28;;;;;;;3.87;3.67;;;15.10;99.90;;;;;;4995639;28;20394;-82
2022/04/16 13:13:55;;;;;;;3.90;3.60;;;15.20;99.90;;;;;;4993124;28;20481;-81
2022/04/16 13:16:21;;;;;;;3.95;3.65;;;15.40;99.90;;;;;;4993376;28;20406;-80